Аэропорт: Нариманово. Астрахань

ICAO: URWA

METAR:
2022-06-26 11:00:00
URWA 261100Z 07004MPS 040V120 CAVOK 33/13 Q1007 R09/010070 NOSIG RMK QFE757/1009
METAR:
2022-06-26 07:59:00
TAF URWA 260759Z 2609/2618 05003G10MPS 9999 SCT030CB TEMPO 2609/2618 08007G14MPS PROB40 TEMPO 2609/2615 3000 -TSRA